sensor_id;sensor_type;location;lat;lon;timestamp;P1;durP1;ratioP1;P2;durP2;ratioP2
10721;SDS011;5412;59.450;18.124;2023-05-10T00:01:51;6.97;;;4.57;;
10721;SDS011;5412;59.450;18.124;2023-05-10T00:04:17;9.05;;;5.18;;
10721;SDS011;5412;59.450;18.124;2023-05-10T00:06:42;7.05;;;4.18;;
10721;SDS011;5412;59.450;18.124;2023-05-10T00:09:08;8.35;;;4.60;;
10721;SDS011;5412;59.450;18.124;2023-05-10T00:11:34;6.32;;;4.47;;
10721;SDS011;5412;59.450;18.124;2023-05-10T00:13:59;9.15;;;4.97;;
10721;SDS011;5412;59.450;18.124;2023-05-10T00:16:25;8.40;;;4.70;;
10721;SDS011;5412;59.450;18.124;2023-05-10T00:18:51;6.53;;;4.57;;
10721;SDS011;5412;59.450;18.124;2023-05-10T00:21:16;7.38;;;4.43;;
10721;SDS011;5412;59.450;18.124;2023-05-10T00:23:42;12.77;;;4.63;;
10721;SDS011;5412;59.450;18.124;2023-05-10T00:26:08;8.73;;;4.50;;
10721;SDS011;5412;59.450;18.124;2023-05-10T00:28:34;9.07;;;5.18;;
10721;SDS011;5412;59.450;18.124;2023-05-10T00:30:59;7.95;;;4.40;;
10721;SDS011;5412;59.450;18.124;2023-05-10T00:33:25;7.60;;;4.82;;
10721;SDS011;5412;59.450;18.124;2023-05-10T00:35:51;9.40;;;4.07;;
10721;SDS011;5412;59.450;18.124;2023-05-10T00:38:17;9.13;;;4.70;;
10721;SDS011;5412;59.450;18.124;2023-05-10T00:40:43;8.75;;;5.22;;
10721;SDS011;5412;59.450;18.124;2023-05-10T00:43:09;6.40;;;4.13;;
10721;SDS011;5412;59.450;18.124;2023-05-10T00:45:34;6.78;;;4.28;;
10721;SDS011;5412;59.450;18.124;2023-05-10T00:48:02;7.55;;;4.18;;
10721;SDS011;5412;59.450;18.124;2023-05-10T00:50:28;8.15;;;4.13;;
10721;SDS011;5412;59.450;18.124;2023-05-10T00:52:56;7.00;;;4.80;;
10721;SDS011;5412;59.450;18.124;2023-05-10T00:55:23;6.95;;;4.30;;
10721;SDS011;5412;59.450;18.124;2023-05-10T00:57:49;8.57;;;4.38;;
10721;SDS011;5412;59.450;18.124;2023-05-10T01:00:15;6.63;;;4.38;;
10721;SDS011;5412;59.450;18.124;2023-05-10T01:02:44;8.50;;;4.68;;
10721;SDS011;5412;59.450;18.124;2023-05-10T01:05:11;5.25;;;4.07;;
10721;SDS011;5412;59.450;18.124;2023-05-10T01:07:37;5.95;;;4.05;;
10721;SDS011;5412;59.450;18.124;2023-05-10T01:10:03;6.32;;;4.32;;
10721;SDS011;5412;59.450;18.124;2023-05-10T01:12:30;7.30;;;4.18;;
10721;SDS011;5412;59.450;18.124;2023-05-10T01:14:56;6.60;;;4.35;;
10721;SDS011;5412;59.450;18.124;2023-05-10T01:17:23;6.00;;;4.20;;
10721;SDS011;5412;59.450;18.124;2023-05-10T01:19:49;7.22;;;4.20;;
10721;SDS011;5412;59.450;18.124;2023-05-10T01:25:08;9.00;;;4.55;;
10721;SDS011;5412;59.450;18.124;2023-05-10T01:33:35;5.97;;;3.88;;
10721;SDS011;5412;59.450;18.124;2023-05-10T01:36:13;6.25;;;4.35;;
10721;SDS011;5412;59.450;18.124;2023-05-10T01:44:13;6.50;;;4.07;;
10721;SDS011;5412;59.450;18.124;2023-05-10T01:46:41;8.20;;;4.35;;
10721;SDS011;5412;59.450;18.124;2023-05-10T01:49:13;5.35;;;4.10;;
10721;SDS011;5412;59.450;18.124;2023-05-10T01:51:50;5.47;;;4.03;;
10721;SDS011;5412;59.450;18.124;2023-05-10T01:54:19;5.55;;;3.90;;
10721;SDS011;5412;59.450;18.124;2023-05-10T01:56:50;11.13;;;4.40;;
10721;SDS011;5412;59.450;18.124;2023-05-10T01:59:22;5.65;;;4.28;;
10721;SDS011;5412;59.450;18.124;2023-05-10T02:01:50;5.78;;;4.40;;
10721;SDS011;5412;59.450;18.124;2023-05-10T02:04:17;7.10;;;4.38;;
10721;SDS011;5412;59.450;18.124;2023-05-10T02:06:45;5.47;;;3.95;;
10721;SDS011;5412;59.450;18.124;2023-05-10T02:09:13;7.28;;;4.28;;
10721;SDS011;5412;59.450;18.124;2023-05-10T02:11:41;7.40;;;4.45;;
10721;SDS011;5412;59.450;18.124;2023-05-10T02:14:09;9.57;;;4.30;;
10721;SDS011;5412;59.450;18.124;2023-05-10T02:16:36;8.88;;;4.60;;
10721;SDS011;5412;59.450;18.124;2023-05-10T02:19:04;8.25;;;4.40;;
10721;SDS011;5412;59.450;18.124;2023-05-10T02:21:31;7.53;;;4.32;;
10721;SDS011;5412;59.450;18.124;2023-05-10T02:23:58;9.85;;;3.95;;
10721;SDS011;5412;59.450;18.124;2023-05-10T02:26:25;7.22;;;4.50;;
10721;SDS011;5412;59.450;18.124;2023-05-10T02:28:51;5.30;;;4.13;;
10721;SDS011;5412;59.450;18.124;2023-05-10T02:31:19;5.85;;;3.88;;
10721;SDS011;5412;59.450;18.124;2023-05-10T02:33:46;4.28;;;3.78;;
10721;SDS011;5412;59.450;18.124;2023-05-10T02:36:14;10.23;;;4.75;;
10721;SDS011;5412;59.450;18.124;2023-05-10T02:38:41;10.07;;;4.47;;
10721;SDS011;5412;59.450;18.124;2023-05-10T02:41:08;7.07;;;4.35;;
10721;SDS011;5412;59.450;18.124;2023-05-10T02:43:36;10.15;;;4.57;;
10721;SDS011;5412;59.450;18.124;2023-05-10T02:46:03;9.13;;;4.00;;
10721;SDS011;5412;59.450;18.124;2023-05-10T02:48:29;16.25;;;5.22;;
10721;SDS011;5412;59.450;18.124;2023-05-10T02:50:57;5.22;;;4.13;;
10721;SDS011;5412;59.450;18.124;2023-05-10T02:53:33;7.13;;;4.72;;
10721;SDS011;5412;59.450;18.124;2023-05-10T02:56:01;9.68;;;4.88;;
10721;SDS011;5412;59.450;18.124;2023-05-10T02:58:33;9.77;;;4.55;;
10721;SDS011;5412;59.450;18.124;2023-05-10T03:00:59;8.73;;;4.57;;
10721;SDS011;5412;59.450;18.124;2023-05-10T03:03:25;7.32;;;4.38;;
10721;SDS011;5412;59.450;18.124;2023-05-10T03:05:51;6.35;;;4.55;;
10721;SDS011;5412;59.450;18.124;2023-05-10T03:08:20;7.30;;;4.38;;
10721;SDS011;5412;59.450;18.124;2023-05-10T03:13:43;7.70;;;4.25;;
10721;SDS011;5412;59.450;18.124;2023-05-10T03:16:33;4.63;;;4.18;;
10721;SDS011;5412;59.450;18.124;2023-05-10T03:19:24;7.45;;;4.45;;
10721;SDS011;5412;59.450;18.124;2023-05-10T03:21:55;10.48;;;5.03;;
10721;SDS011;5412;59.450;18.124;2023-05-10T03:24:24;6.38;;;4.57;;
10721;SDS011;5412;59.450;18.124;2023-05-10T03:26:53;5.65;;;4.03;;
10721;SDS011;5412;59.450;18.124;2023-05-10T03:29:25;8.05;;;4.25;;
10721;SDS011;5412;59.450;18.124;2023-05-10T03:31:51;9.00;;;4.57;;
10721;SDS011;5412;59.450;18.124;2023-05-10T03:34:22;7.75;;;4.78;;
10721;SDS011;5412;59.450;18.124;2023-05-10T03:36:51;9.52;;;4.72;;
10721;SDS011;5412;59.450;18.124;2023-05-10T03:39:17;6.25;;;5.13;;
10721;SDS011;5412;59.450;18.124;2023-05-10T03:41:43;8.25;;;4.57;;
10721;SDS011;5412;59.450;18.124;2023-05-10T03:44:09;11.65;;;6.13;;
10721;SDS011;5412;59.450;18.124;2023-05-10T03:46:35;8.13;;;4.65;;
10721;SDS011;5412;59.450;18.124;2023-05-10T03:49:00;8.13;;;4.88;;
10721;SDS011;5412;59.450;18.124;2023-05-10T03:51:26;9.45;;;4.70;;
10721;SDS011;5412;59.450;18.124;2023-05-10T03:53:53;6.20;;;4.60;;
10721;SDS011;5412;59.450;18.124;2023-05-10T03:56:20;8.30;;;4.85;;
10721;SDS011;5412;59.450;18.124;2023-05-10T03:58:46;6.68;;;4.40;;
10721;SDS011;5412;59.450;18.124;2023-05-10T04:01:12;5.47;;;4.05;;
10721;SDS011;5412;59.450;18.124;2023-05-10T04:03:37;5.10;;;4.55;;
10721;SDS011;5412;59.450;18.124;2023-05-10T04:06:03;6.60;;;4.55;;
10721;SDS011;5412;59.450;18.124;2023-05-10T04:08:30;9.30;;;4.65;;
10721;SDS011;5412;59.450;18.124;2023-05-10T04:13:51;8.95;;;4.50;;
10721;SDS011;5412;59.450;18.124;2023-05-10T04:16:17;6.07;;;4.35;;
10721;SDS011;5412;59.450;18.124;2023-05-10T04:18:42;5.60;;;4.70;;
10721;SDS011;5412;59.450;18.124;2023-05-10T04:21:11;5.65;;;4.20;;
10721;SDS011;5412;59.450;18.124;2023-05-10T04:23:38;5.18;;;4.25;;
10721;SDS011;5412;59.450;18.124;2023-05-10T04:26:04;6.43;;;4.68;;
10721;SDS011;5412;59.450;18.124;2023-05-10T04:28:30;8.80;;;4.75;;
10721;SDS011;5412;59.450;18.124;2023-05-10T04:31:05;7.18;;;4.53;;
10721;SDS011;5412;59.450;18.124;2023-05-10T04:33:33;5.05;;;4.13;;
10721;SDS011;5412;59.450;18.124;2023-05-10T04:35:59;6.30;;;4.43;;
10721;SDS011;5412;59.450;18.124;2023-05-10T04:38:25;5.47;;;4.38;;
10721;SDS011;5412;59.450;18.124;2023-05-10T04:40:51;8.32;;;4.60;;
10721;SDS011;5412;59.450;18.124;2023-05-10T04:43:17;8.15;;;4.78;;
10721;SDS011;5412;59.450;18.124;2023-05-10T04:45:43;6.97;;;4.82;;
10721;SDS011;5412;59.450;18.124;2023-05-10T04:48:09;7.03;;;4.35;;
10721;SDS011;5412;59.450;18.124;2023-05-10T04:50:36;6.65;;;4.30;;
10721;SDS011;5412;59.450;18.124;2023-05-10T04:53:03;4.82;;;4.22;;
10721;SDS011;5412;59.450;18.124;2023-05-10T04:55:29;8.48;;;4.65;;
10721;SDS011;5412;59.450;18.124;2023-05-10T04:57:55;8.05;;;4.03;;
10721;SDS011;5412;59.450;18.124;2023-05-10T05:00:22;5.90;;;4.28;;
10721;SDS011;5412;59.450;18.124;2023-05-10T05:02:48;5.68;;;4.03;;
10721;SDS011;5412;59.450;18.124;2023-05-10T05:05:14;5.57;;;3.65;;
10721;SDS011;5412;59.450;18.124;2023-05-10T05:07:40;6.22;;;4.50;;
10721;SDS011;5412;59.450;18.124;2023-05-10T05:10:06;7.75;;;4.30;;
10721;SDS011;5412;59.450;18.124;2023-05-10T05:12:33;6.43;;;3.97;;
10721;SDS011;5412;59.450;18.124;2023-05-10T05:14:59;5.63;;;3.78;;
10721;SDS011;5412;59.450;18.124;2023-05-10T05:17:27;6.55;;;4.18;;
10721;SDS011;5412;59.450;18.124;2023-05-10T05:19:54;10.65;;;4.10;;
10721;SDS011;5412;59.450;18.124;2023-05-10T05:22:20;5.30;;;3.83;;
10721;SDS011;5412;59.450;18.124;2023-05-10T05:24:52;4.72;;;3.70;;
10721;SDS011;5412;59.450;18.124;2023-05-10T05:27:19;7.53;;;4.30;;
10721;SDS011;5412;59.450;18.124;2023-05-10T05:29:47;5.05;;;3.85;;
10721;SDS011;5412;59.450;18.124;2023-05-10T05:32:13;6.00;;;3.92;;
10721;SDS011;5412;59.450;18.124;2023-05-10T05:34:38;6.30;;;3.90;;
10721;SDS011;5412;59.450;18.124;2023-05-10T05:37:04;9.75;;;3.83;;
10721;SDS011;5412;59.450;18.124;2023-05-10T05:39:30;6.85;;;3.60;;
10721;SDS011;5412;59.450;18.124;2023-05-10T05:41:55;9.55;;;4.38;;
10721;SDS011;5412;59.450;18.124;2023-05-10T05:44:21;10.00;;;3.70;;
10721;SDS011;5412;59.450;18.124;2023-05-10T05:46:47;10.52;;;4.00;;
10721;SDS011;5412;59.450;18.124;2023-05-10T05:49:12;10.85;;;3.92;;
10721;SDS011;5412;59.450;18.124;2023-05-10T05:51:38;5.97;;;3.78;;
10721;SDS011;5412;59.450;18.124;2023-05-10T05:54:04;6.53;;;3.53;;
10721;SDS011;5412;59.450;18.124;2023-05-10T05:56:30;6.45;;;5.20;;
10721;SDS011;5412;59.450;18.124;2023-05-10T05:58:55;8.73;;;3.80;;
10721;SDS011;5412;59.450;18.124;2023-05-10T06:01:21;9.32;;;4.30;;
10721;SDS011;5412;59.450;18.124;2023-05-10T06:03:47;8.48;;;4.05;;
10721;SDS011;5412;59.450;18.124;2023-05-10T06:06:12;10.10;;;3.53;;
10721;SDS011;5412;59.450;18.124;2023-05-10T06:08:38;5.35;;;3.40;;
10721;SDS011;5412;59.450;18.124;2023-05-10T06:11:04;9.68;;;3.55;;
10721;SDS011;5412;59.450;18.124;2023-05-10T06:13:30;5.88;;;3.72;;
10721;SDS011;5412;59.450;18.124;2023-05-10T06:16:00;9.55;;;3.60;;
10721;SDS011;5412;59.450;18.124;2023-05-10T06:18:27;5.93;;;4.18;;
10721;SDS011;5412;59.450;18.124;2023-05-10T06:20:53;6.45;;;3.50;;
10721;SDS011;5412;59.450;18.124;2023-05-10T06:23:18;5.78;;;3.03;;
10721;SDS011;5412;59.450;18.124;2023-05-10T06:25:44;6.53;;;3.22;;
10721;SDS011;5412;59.450;18.124;2023-05-10T06:28:10;3.90;;;3.30;;
10721;SDS011;5412;59.450;18.124;2023-05-10T06:30:36;4.82;;;3.10;;
10721;SDS011;5412;59.450;18.124;2023-05-10T06:33:02;6.07;;;3.30;;
10721;SDS011;5412;59.450;18.124;2023-05-10T06:35:28;6.72;;;3.25;;
10721;SDS011;5412;59.450;18.124;2023-05-10T06:37:54;5.80;;;3.10;;
10721;SDS011;5412;59.450;18.124;2023-05-10T06:40:20;4.20;;;3.00;;
10721;SDS011;5412;59.450;18.124;2023-05-10T06:42:46;8.98;;;3.30;;
10721;SDS011;5412;59.450;18.124;2023-05-10T06:45:13;9.75;;;3.65;;
10721;SDS011;5412;59.450;18.124;2023-05-10T06:47:39;5.88;;;3.22;;
10721;SDS011;5412;59.450;18.124;2023-05-10T06:50:06;6.28;;;2.75;;
10721;SDS011;5412;59.450;18.124;2023-05-10T06:52:36;6.47;;;3.47;;
10721;SDS011;5412;59.450;18.124;2023-05-10T06:55:03;8.30;;;2.88;;
10721;SDS011;5412;59.450;18.124;2023-05-10T06:57:29;7.05;;;3.53;;
10721;SDS011;5412;59.450;18.124;2023-05-10T06:59:55;3.97;;;3.30;;
10721;SDS011;5412;59.450;18.124;2023-05-10T07:02:21;10.18;;;3.33;;
10721;SDS011;5412;59.450;18.124;2023-05-10T07:04:47;5.25;;;3.15;;
10721;SDS011;5412;59.450;18.124;2023-05-10T07:07:13;3.83;;;2.95;;
10721;SDS011;5412;59.450;18.124;2023-05-10T07:09:39;7.90;;;3.20;;
10721;SDS011;5412;59.450;18.124;2023-05-10T07:12:05;4.75;;;3.33;;
10721;SDS011;5412;59.450;18.124;2023-05-10T07:14:31;5.97;;;3.10;;
10721;SDS011;5412;59.450;18.124;2023-05-10T07:16:57;8.02;;;3.42;;
10721;SDS011;5412;59.450;18.124;2023-05-10T07:19:23;5.00;;;3.28;;
10721;SDS011;5412;59.450;18.124;2023-05-10T07:21:48;8.13;;;3.28;;
10721;SDS011;5412;59.450;18.124;2023-05-10T07:24:15;11.98;;;3.22;;
10721;SDS011;5412;59.450;18.124;2023-05-10T07:26:41;4.25;;;3.08;;
10721;SDS011;5412;59.450;18.124;2023-05-10T07:29:07;9.15;;;3.10;;
10721;SDS011;5412;59.450;18.124;2023-05-10T07:31:32;5.32;;;2.80;;
10721;SDS011;5412;59.450;18.124;2023-05-10T07:33:58;9.23;;;3.47;;
10721;SDS011;5412;59.450;18.124;2023-05-10T07:36:24;6.70;;;3.08;;
10721;SDS011;5412;59.450;18.124;2023-05-10T07:38:49;7.10;;;3.10;;
10721;SDS011;5412;59.450;18.124;2023-05-10T07:41:15;5.63;;;3.65;;
10721;SDS011;5412;59.450;18.124;2023-05-10T07:43:41;9.07;;;4.03;;
10721;SDS011;5412;59.450;18.124;2023-05-10T07:46:07;8.45;;;3.42;;
10721;SDS011;5412;59.450;18.124;2023-05-10T07:48:34;5.78;;;3.10;;
10721;SDS011;5412;59.450;18.124;2023-05-10T07:51:01;6.95;;;3.08;;
10721;SDS011;5412;59.450;18.124;2023-05-10T07:53:27;7.25;;;3.35;;
10721;SDS011;5412;59.450;18.124;2023-05-10T07:55:54;8.80;;;3.28;;
10721;SDS011;5412;59.450;18.124;2023-05-10T07:58:23;6.63;;;3.20;;
10721;SDS011;5412;59.450;18.124;2023-05-10T08:00:52;7.90;;;3.20;;
10721;SDS011;5412;59.450;18.124;2023-05-10T08:03:17;7.63;;;2.80;;
10721;SDS011;5412;59.450;18.124;2023-05-10T08:05:43;8.15;;;2.92;;
10721;SDS011;5412;59.450;18.124;2023-05-10T08:08:09;5.43;;;2.92;;
10721;SDS011;5412;59.450;18.124;2023-05-10T08:10:34;3.90;;;2.67;;
10721;SDS011;5412;59.450;18.124;2023-05-10T08:13:00;5.47;;;2.65;;
10721;SDS011;5412;59.450;18.124;2023-05-10T08:15:26;8.88;;;3.10;;
10721;SDS011;5412;59.450;18.124;2023-05-10T08:17:52;7.05;;;3.28;;
10721;SDS011;5412;59.450;18.124;2023-05-10T08:20:17;5.60;;;3.08;;
10721;SDS011;5412;59.450;18.124;2023-05-10T08:22:47;5.45;;;3.17;;
10721;SDS011;5412;59.450;18.124;2023-05-10T08:25:12;4.88;;;2.45;;
10721;SDS011;5412;59.450;18.124;2023-05-10T08:27:38;3.90;;;2.75;;
10721;SDS011;5412;59.450;18.124;2023-05-10T08:30:04;4.78;;;3.10;;
10721;SDS011;5412;59.450;18.124;2023-05-10T08:32:31;6.22;;;3.20;;
10721;SDS011;5412;59.450;18.124;2023-05-10T08:34:56;6.95;;;2.97;;
10721;SDS011;5412;59.450;18.124;2023-05-10T08:37:23;17.27;;;3.17;;
10721;SDS011;5412;59.450;18.124;2023-05-10T08:39:48;7.15;;;3.17;;
10721;SDS011;5412;59.450;18.124;2023-05-10T08:42:15;5.35;;;3.00;;
10721;SDS011;5412;59.450;18.124;2023-05-10T08:44:45;9.82;;;2.75;;
10721;SDS011;5412;59.450;18.124;2023-05-10T08:47:15;6.70;;;3.13;;
10721;SDS011;5412;59.450;18.124;2023-05-10T08:49:43;7.13;;;2.75;;
10721;SDS011;5412;59.450;18.124;2023-05-10T08:52:11;12.98;;;3.50;;
10721;SDS011;5412;59.450;18.124;2023-05-10T08:54:39;6.85;;;3.08;;
10721;SDS011;5412;59.450;18.124;2023-05-10T08:57:06;4.05;;;3.05;;
10721;SDS011;5412;59.450;18.124;2023-05-10T08:59:32;5.07;;;3.22;;
10721;SDS011;5412;59.450;18.124;2023-05-10T09:01:58;3.50;;;2.65;;
10721;SDS011;5412;59.450;18.124;2023-05-10T09:04:25;5.78;;;3.05;;
10721;SDS011;5412;59.450;18.124;2023-05-10T09:06:51;5.60;;;2.78;;
10721;SDS011;5412;59.450;18.124;2023-05-10T09:09:17;4.88;;;2.75;;
10721;SDS011;5412;59.450;18.124;2023-05-10T09:11:44;5.75;;;3.10;;
10721;SDS011;5412;59.450;18.124;2023-05-10T09:14:10;4.35;;;2.65;;
10721;SDS011;5412;59.450;18.124;2023-05-10T09:16:37;8.27;;;3.08;;
10721;SDS011;5412;59.450;18.124;2023-05-10T09:19:03;5.93;;;2.90;;
10721;SDS011;5412;59.450;18.124;2023-05-10T09:21:29;4.53;;;3.42;;
10721;SDS011;5412;59.450;18.124;2023-05-10T09:23:56;7.72;;;3.08;;
10721;SDS011;5412;59.450;18.124;2023-05-10T09:26:23;4.95;;;2.83;;
10721;SDS011;5412;59.450;18.124;2023-05-10T09:28:56;8.32;;;3.03;;
10721;SDS011;5412;59.450;18.124;2023-05-10T09:31:22;10.95;;;3.13;;
10721;SDS011;5412;59.450;18.124;2023-05-10T09:33:50;4.68;;;3.17;;
10721;SDS011;5412;59.450;18.124;2023-05-10T09:36:16;9.48;;;3.00;;
10721;SDS011;5412;59.450;18.124;2023-05-10T09:38:49;3.97;;;2.88;;
10721;SDS011;5412;59.450;18.124;2023-05-10T09:41:22;4.97;;;2.35;;
10721;SDS011;5412;59.450;18.124;2023-05-10T09:43:48;4.13;;;2.80;;
10721;SDS011;5412;59.450;18.124;2023-05-10T09:46:15;6.40;;;3.13;;
10721;SDS011;5412;59.450;18.124;2023-05-10T09:48:45;10.77;;;3.33;;
10721;SDS011;5412;59.450;18.124;2023-05-10T09:51:18;12.07;;;3.33;;
10721;SDS011;5412;59.450;18.124;2023-05-10T09:53:45;4.57;;;2.40;;
10721;SDS011;5412;59.450;18.124;2023-05-10T09:56:11;3.10;;;2.40;;
10721;SDS011;5412;59.450;18.124;2023-05-10T09:58:37;3.47;;;2.50;;
10721;SDS011;5412;59.450;18.124;2023-05-10T10:01:10;5.60;;;2.78;;
10721;SDS011;5412;59.450;18.124;2023-05-10T10:03:41;6.45;;;3.17;;
10721;SDS011;5412;59.450;18.124;2023-05-10T10:06:08;5.18;;;2.70;;
10721;SDS011;5412;59.450;18.124;2023-05-10T10:08:34;3.95;;;2.50;;
10721;SDS011;5412;59.450;18.124;2023-05-10T10:11:00;3.25;;;2.50;;
10721;SDS011;5412;59.450;18.124;2023-05-10T10:13:26;8.15;;;2.83;;
10721;SDS011;5412;59.450;18.124;2023-05-10T10:15:52;3.25;;;2.50;;
10721;SDS011;5412;59.450;18.124;2023-05-10T10:18:19;9.77;;;2.83;;
10721;SDS011;5412;59.450;18.124;2023-05-10T10:20:52;4.07;;;2.35;;
10721;SDS011;5412;59.450;18.124;2023-05-10T10:23:19;2.78;;;2.55;;
10721;SDS011;5412;59.450;18.124;2023-05-10T10:25:45;4.72;;;2.70;;
10721;SDS011;5412;59.450;18.124;2023-05-10T10:28:24;2.65;;;2.45;;
10721;SDS011;5412;59.450;18.124;2023-05-10T10:31:02;5.53;;;;;
10721;SDS011;5412;59.450;18.124;2023-05-10T10:36:39;6.45;;;3.33;;
10721;SDS011;5412;59.450;18.124;2023-05-10T10:39:10;10.00;;;2.53;;
10721;SDS011;5412;59.450;18.124;2023-05-10T10:41:36;5.22;;;2.42;;
10721;SDS011;5412;59.450;18.124;2023-05-10T10:47:02;6.70;;;2.90;;
10721;SDS011;5412;59.450;18.124;2023-05-10T10:49:51;4.55;;;2.60;;
10721;SDS011;5412;59.450;18.124;2023-05-10T10:57:31;7.22;;;2.63;;
10721;SDS011;5412;59.450;18.124;2023-05-10T11:00:35;5.80;;;2.47;;
10721;SDS011;5412;59.450;18.124;2023-05-10T11:03:03;4.53;;;2.60;;
10721;SDS011;5412;59.450;18.124;2023-05-10T11:05:42;3.97;;;2.72;;
10721;SDS011;5412;59.450;18.124;2023-05-10T11:15:53;5.63;;;2.60;;
10721;SDS011;5412;59.450;18.124;2023-05-10T11:18:29;4.18;;;2.50;;
10721;SDS011;5412;59.450;18.124;2023-05-10T11:23:22;4.40;;;3.05;;
10721;SDS011;5412;59.450;18.124;2023-05-10T11:25:49;3.50;;;2.65;;
10721;SDS011;5412;59.450;18.124;2023-05-10T11:28:16;3.55;;;2.45;;
10721;SDS011;5412;59.450;18.124;2023-05-10T11:30:44;6.05;;;2.80;;
10721;SDS011;5412;59.450;18.124;2023-05-10T11:33:14;7.32;;;2.70;;
10721;SDS011;5412;59.450;18.124;2023-05-10T11:35:44;5.45;;;2.55;;
10721;SDS011;5412;59.450;18.124;2023-05-10T11:38:11;7.22;;;2.42;;
10721;SDS011;5412;59.450;18.124;2023-05-10T11:40:38;5.85;;;2.42;;
10721;SDS011;5412;59.450;18.124;2023-05-10T11:43:04;3.30;;;2.60;;
10721;SDS011;5412;59.450;18.124;2023-05-10T11:45:33;4.15;;;2.67;;
10721;SDS011;5412;59.450;18.124;2023-05-10T11:47:59;7.53;;;2.67;;
10721;SDS011;5412;59.450;18.124;2023-05-10T11:50:26;4.35;;;2.90;;
10721;SDS011;5412;59.450;18.124;2023-05-10T11:52:52;4.60;;;2.60;;
10721;SDS011;5412;59.450;18.124;2023-05-10T11:55:19;7.38;;;2.83;;
10721;SDS011;5412;59.450;18.124;2023-05-10T11:57:44;15.05;;;3.15;;
10721;SDS011;5412;59.450;18.124;2023-05-10T12:00:11;12.23;;;2.70;;
10721;SDS011;5412;59.450;18.124;2023-05-10T12:02:40;5.45;;;2.72;;
10721;SDS011;5412;59.450;18.124;2023-05-10T12:05:06;6.07;;;3.03;;
10721;SDS011;5412;59.450;18.124;2023-05-10T12:07:32;3.45;;;2.83;;
10721;SDS011;5412;59.450;18.124;2023-05-10T12:10:13;5.63;;;2.40;;
10721;SDS011;5412;59.450;18.124;2023-05-10T12:12:46;4.72;;;2.40;;
10721;SDS011;5412;59.450;18.124;2023-05-10T12:15:18;4.38;;;2.42;;
10721;SDS011;5412;59.450;18.124;2023-05-10T12:17:46;11.45;;;3.13;;
10721;SDS011;5412;59.450;18.124;2023-05-10T12:20:12;5.65;;;2.67;;
10721;SDS011;5412;59.450;18.124;2023-05-10T12:22:40;3.60;;;2.42;;
10721;SDS011;5412;59.450;18.124;2023-05-10T12:25:08;5.13;;;2.50;;
10721;SDS011;5412;59.450;18.124;2023-05-10T12:27:35;6.18;;;2.83;;
10721;SDS011;5412;59.450;18.124;2023-05-10T12:30:01;6.75;;;2.95;;
10721;SDS011;5412;59.450;18.124;2023-05-10T12:32:37;4.05;;;2.63;;
10721;SDS011;5412;59.450;18.124;2023-05-10T12:35:07;6.10;;;2.92;;
10721;SDS011;5412;59.450;18.124;2023-05-10T12:37:33;5.72;;;2.67;;
10721;SDS011;5412;59.450;18.124;2023-05-10T12:40:04;4.32;;;2.65;;
10721;SDS011;5412;59.450;18.124;2023-05-10T12:42:35;4.63;;;2.50;;
10721;SDS011;5412;59.450;18.124;2023-05-10T12:45:02;7.93;;;2.88;;
10721;SDS011;5412;59.450;18.124;2023-05-10T12:47:28;5.53;;;3.03;;
10721;SDS011;5412;59.450;18.124;2023-05-10T12:49:55;3.03;;;2.72;;
10721;SDS011;5412;59.450;18.124;2023-05-10T12:52:20;8.70;;;2.83;;
10721;SDS011;5412;59.450;18.124;2023-05-10T12:54:46;6.03;;;2.60;;
10721;SDS011;5412;59.450;18.124;2023-05-10T12:57:12;7.97;;;2.90;;
10721;SDS011;5412;59.450;18.124;2023-05-10T12:59:38;6.25;;;2.53;;
10721;SDS011;5412;59.450;18.124;2023-05-10T13:02:04;7.03;;;2.30;;
10721;SDS011;5412;59.450;18.124;2023-05-10T13:04:31;9.25;;;2.90;;
10721;SDS011;5412;59.450;18.124;2023-05-10T13:06:56;4.55;;;2.60;;
10721;SDS011;5412;59.450;18.124;2023-05-10T13:09:26;8.27;;;2.85;;
10721;SDS011;5412;59.450;18.124;2023-05-10T13:11:54;7.85;;;2.60;;
10721;SDS011;5412;59.450;18.124;2023-05-10T13:14:20;3.78;;;2.60;;
10721;SDS011;5412;59.450;18.124;2023-05-10T13:16:46;6.45;;;2.63;;
10721;SDS011;5412;59.450;18.124;2023-05-10T13:19:16;3.75;;;2.58;;
10721;SDS011;5412;59.450;18.124;2023-05-10T13:21:42;6.28;;;3.22;;
10721;SDS011;5412;59.450;18.124;2023-05-10T13:24:09;5.88;;;2.80;;
10721;SDS011;5412;59.450;18.124;2023-05-10T13:26:36;4.28;;;3.03;;
10721;SDS011;5412;59.450;18.124;2023-05-10T13:29:02;6.40;;;2.80;;
10721;SDS011;5412;59.450;18.124;2023-05-10T13:31:28;4.38;;;2.63;;
10721;SDS011;5412;59.450;18.124;2023-05-10T13:33:54;4.85;;;2.75;;
10721;SDS011;5412;59.450;18.124;2023-05-10T13:36:20;5.93;;;2.85;;
10721;SDS011;5412;59.450;18.124;2023-05-10T13:38:46;2.63;;;2.42;;
10721;SDS011;5412;59.450;18.124;2023-05-10T13:41:11;6.82;;;2.30;;
10721;SDS011;5412;59.450;18.124;2023-05-10T13:43:37;8.20;;;2.50;;
10721;SDS011;5412;59.450;18.124;2023-05-10T13:46:03;4.97;;;2.60;;
10721;SDS011;5412;59.450;18.124;2023-05-10T13:48:29;7.72;;;2.88;;
10721;SDS011;5412;59.450;18.124;2023-05-10T13:50:54;4.13;;;2.60;;
10721;SDS011;5412;59.450;18.124;2023-05-10T13:53:21;6.13;;;2.40;;
10721;SDS011;5412;59.450;18.124;2023-05-10T13:55:46;4.45;;;2.90;;
10721;SDS011;5412;59.450;18.124;2023-05-10T13:58:12;4.07;;;3.10;;
10721;SDS011;5412;59.450;18.124;2023-05-10T14:00:38;11.27;;;2.97;;
10721;SDS011;5412;59.450;18.124;2023-05-10T14:03:04;4.82;;;2.25;;
10721;SDS011;5412;59.450;18.124;2023-05-10T14:05:31;11.18;;;3.35;;
10721;SDS011;5412;59.450;18.124;2023-05-10T14:07:57;5.55;;;3.75;;
10721;SDS011;5412;59.450;18.124;2023-05-10T14:10:22;6.82;;;2.75;;
10721;SDS011;5412;59.450;18.124;2023-05-10T14:12:49;4.72;;;2.70;;
10721;SDS011;5412;59.450;18.124;2023-05-10T14:15:15;3.22;;;2.53;;
10721;SDS011;5412;59.450;18.124;2023-05-10T14:17:41;4.70;;;2.30;;
10721;SDS011;5412;59.450;18.124;2023-05-10T14:20:07;3.15;;;2.22;;
10721;SDS011;5412;59.450;18.124;2023-05-10T14:22:33;9.68;;;2.60;;
10721;SDS011;5412;59.450;18.124;2023-05-10T14:24:59;7.15;;;2.47;;
10721;SDS011;5412;59.450;18.124;2023-05-10T14:27:26;7.80;;;2.70;;
10721;SDS011;5412;59.450;18.124;2023-05-10T14:29:51;3.85;;;2.08;;
10721;SDS011;5412;59.450;18.124;2023-05-10T14:32:18;3.30;;;2.50;;
10721;SDS011;5412;59.450;18.124;2023-05-10T14:34:44;4.68;;;2.70;;
10721;SDS011;5412;59.450;18.124;2023-05-10T14:37:10;3.03;;;2.10;;
10721;SDS011;5412;59.450;18.124;2023-05-10T14:39:36;4.75;;;2.20;;
10721;SDS011;5412;59.450;18.124;2023-05-10T14:42:02;8.07;;;3.03;;
10721;SDS011;5412;59.450;18.124;2023-05-10T14:44:28;2.83;;;2.25;;
10721;SDS011;5412;59.450;18.124;2023-05-10T14:46:54;3.88;;;2.53;;
10721;SDS011;5412;59.450;18.124;2023-05-10T14:49:21;7.03;;;2.30;;
10721;SDS011;5412;59.450;18.124;2023-05-10T14:51:47;4.13;;;2.15;;
10721;SDS011;5412;59.450;18.124;2023-05-10T14:54:13;7.35;;;2.60;;
10721;SDS011;5412;59.450;18.124;2023-05-10T14:56:39;4.97;;;2.10;;
10721;SDS011;5412;59.450;18.124;2023-05-10T14:59:06;3.70;;;2.10;;
10721;SDS011;5412;59.450;18.124;2023-05-10T15:01:32;6.25;;;2.47;;
10721;SDS011;5412;59.450;18.124;2023-05-10T15:04:00;3.40;;;2.25;;
10721;SDS011;5412;59.450;18.124;2023-05-10T15:06:32;7.88;;;2.28;;
10721;SDS011;5412;59.450;18.124;2023-05-10T15:08:59;7.18;;;2.67;;
10721;SDS011;5412;59.450;18.124;2023-05-10T15:11:26;4.38;;;2.55;;
10721;SDS011;5412;59.450;18.124;2023-05-10T15:13:52;4.97;;;2.35;;
10721;SDS011;5412;59.450;18.124;2023-05-10T15:16:18;4.72;;;1.95;;
10721;SDS011;5412;59.450;18.124;2023-05-10T15:18:44;2.58;;;2.28;;
10721;SDS011;5412;59.450;18.124;2023-05-10T15:21:10;5.78;;;2.50;;
10721;SDS011;5412;59.450;18.124;2023-05-10T15:23:36;3.58;;;2.20;;
10721;SDS011;5412;59.450;18.124;2023-05-10T15:26:01;4.70;;;2.10;;
10721;SDS011;5412;59.450;18.124;2023-05-10T15:28:27;6.30;;;2.20;;
10721;SDS011;5412;59.450;18.124;2023-05-10T15:30:53;3.38;;;2.30;;